Time;durP1;ratioP1;P1;durP2;ratioP2;P2;SDS_P1;SDS_P2;PMS_P1;PMS_P2;Temp;Humidity;BMP_temperature;BMP_pressure;BME280_temperature;BME280_humidity;BME280_pressure;Samples;Min_cycle;Max_cycle;Signal;HPM_P1;HPM_P2
2022/05/19 00:02:00;;;;;;;10.10;6.13;;;;;;;24.78;50.70;101873.75;5083050;28;20052;-61
2022/05/19 00:04:27;;;;;;;9.15;6.13;;;;;;;24.77;50.94;101870.19;5087164;28;20051;-61
2022/05/19 00:06:54;;;;;;;9.75;5.72;;;;;;;24.77;50.66;101866.63;5083397;28;20171;-61
2022/05/19 00:09:21;;;;;;;9.20;5.78;;;;;;;24.76;50.99;101865.75;5086649;28;20054;-61
2022/05/19 00:11:48;;;;;;;10.63;6.32;;;;;;;24.76;50.97;101857.63;5083027;28;20046;-61
2022/05/19 00:14:16;;;;;;;11.50;6.40;;;;;;;24.76;51.03;101852.22;5082716;28;20036;-60
2022/05/19 00:16:43;;;;;;;10.85;5.82;;;;;;;24.75;51.26;101846.97;5086719;28;20147;-61
2022/05/19 00:19:11;;;;;;;12.65;5.82;;;;;;;24.74;51.07;101845.28;5083975;28;20308;-60
2022/05/19 00:21:38;;;;;;;12.20;6.70;;;;;;;24.75;50.96;101849.69;5082720;28;20385;-60
2022/05/19 00:24:06;;;;;;;9.80;6.07;;;;;;;24.74;50.56;101845.28;5084344;28;20054;-60
2022/05/19 00:26:33;;;;;;;10.40;6.05;;;;;;;24.74;50.80;101845.28;5085446;28;20199;-61
2022/05/19 00:29:00;;;;;;;9.43;5.65;;;;;;;24.74;51.33;101848.00;5084626;28;20385;-60
2022/05/19 00:31:27;;;;;;;10.82;6.22;;;;;;;24.74;51.25;101853.41;5081504;28;20051;-61
2022/05/19 00:33:54;;;;;;;10.82;5.95;;;;;;;24.73;51.03;101844.44;5083607;28;20138;-60
2022/05/19 00:36:20;;;;;;;9.80;5.90;;;;;;;24.72;51.19;101848.16;5084440;28;20046;-60
2022/05/19 00:38:47;;;;;;;11.13;5.93;;;;;;;24.72;51.28;101856.28;5083340;28;20143;-60
2022/05/19 00:41:15;;;;;;;10.13;6.03;;;;;;;24.72;51.34;101845.44;5084491;28;20083;-60
2022/05/19 00:43:45;;;;;;;8.13;5.25;;;;;;;24.72;51.02;101841.88;5080211;28;20119;-61
2022/05/19 00:46:22;;;;;;;10.20;5.88;;;;;;;24.71;50.89;101835.63;5084619;28;20363;-61
2022/05/19 00:48:55;;;;;;;11.55;6.43;;;;;;;24.72;50.72;101831.03;5080814;28;20052;-60
2022/05/19 00:51:35;;;;;;;10.77;6.40;;;;;;;24.70;50.98;101823.09;5080122;28;20331;-60
2022/05/19 00:54:06;;;;;;;9.38;5.60;;;;;;;24.71;51.31;101823.94;5081988;28;20048;-60
2022/05/19 00:56:41;;;;;;;10.70;6.00;;;;;;;24.70;50.94;101805.97;5079075;28;20046;-61
2022/05/19 00:59:14;;;;;;;8.75;5.82;;;;;;;24.71;50.98;101804.97;5084403;28;20755;-61
2022/05/19 01:01:43;;;;;;;8.95;5.72;;;;;;;24.70;51.29;101804.13;5086520;28;20433;-59
2022/05/19 01:04:17;;;;;;;7.05;5.00;;;;;;;24.70;51.28;101795.13;5084306;28;20044;-60
2022/05/19 01:06:47;;;;;;;12.65;5.75;;;;;;;24.70;50.93;101795.13;5083260;28;20127;-60
2022/05/19 01:09:15;;;;;;;9.00;5.45;;;;;;;24.69;50.95;101793.47;5083881;28;20131;-60
2022/05/19 01:11:43;;;;;;;9.48;6.15;;;;;;;24.69;50.87;101788.88;5083977;28;20059;-61
2022/05/19 01:14:12;;;;;;;10.50;6.03;;;;;;;24.69;51.23;101788.03;5083800;28;20422;-60
2022/05/19 01:16:38;;;;;;;8.68;5.70;;;;;;;24.69;51.31;101778.03;5081474;28;20776;-61
2022/05/19 01:19:19;;;;;;;9.15;6.22;;;;;;;24.68;51.20;101778.19;5062954;28;20060;-60
2022/05/19 01:21:48;;;;;;;10.35;6.07;;;;;;;24.68;51.25;101773.59;5079596;28;20056;-60
2022/05/19 01:24:25;;;;;;;11.63;5.70;;;;;;;24.66;51.42;101767.53;5086051;28;20078;-61
2022/05/19 01:26:55;;;;;;;9.05;5.28;;;;;;;24.67;50.93;101765.66;5083557;28;20062;-59
2022/05/19 01:29:24;;;;;;;9.38;5.60;;;;;;;24.67;50.85;101765.66;5064762;28;20326;-59
2022/05/19 01:32:00;;;;;;;9.48;6.03;;;;;;;24.66;51.04;101761.28;5079524;28;20090;-61
2022/05/19 01:34:30;;;;;;;9.25;5.57;;;;;;;24.66;51.35;101756.69;5082201;28;20072;-61
2022/05/19 01:36:57;;;;;;;9.10;5.72;;;;;;;24.66;51.31;101753.13;5078743;28;20056;-61
2022/05/19 01:39:26;;;;;;;8.10;5.55;;;;;;;24.65;51.09;101748.75;5082161;28;20179;-60
2022/05/19 01:42:24;;;;;;;9.45;5.40;;;;;;;24.62;51.64;101742.63;5072898;28;20060;-60
2022/05/19 01:44:58;;;;;;;9.70;6.18;;;;;;;24.65;50.90;101743.31;5077600;28;20051;-60
2022/05/19 01:47:50;;;;;;;9.48;5.63;;;;;;;24.64;51.20;101745.16;5081087;28;20048;-60
2022/05/19 01:50:29;;;;;;;8.07;4.90;;;;;;;24.64;51.11;101742.44;5081418;28;20297;-60
2022/05/19 01:53:16;;;;;;;7.90;5.13;;;;;;;24.63;50.93;101747.03;5062228;28;20067;-60
2022/05/19 01:56:08;;;;;;;8.48;5.45;;;;;;;24.62;51.62;101742.63;5081292;28;20044;-61
2022/05/19 01:58:55;;;;;;;8.13;5.32;;;;;;;24.63;51.11;101741.59;5085733;28;20043;-62
2022/05/19 02:01:26;;;;;;;8.30;5.20;;;;;;;24.64;51.26;101737.03;5084551;28;20044;-60
2022/05/19 02:04:09;;;;;;;9.18;5.93;;;;;;;24.63;51.19;101740.75;5082565;28;20040;-60
2022/05/19 02:06:41;;;;;;;7.75;4.85;;;;;;;24.61;51.49;101732.81;5084693;28;20052;-60
2022/05/19 02:09:30;;;;;;;7.68;5.07;;;;;;;24.62;51.40;101729.09;5081330;28;20050;-60
2022/05/19 02:12:00;;;;;;;9.40;5.72;;;;;;;24.62;51.75;101723.66;5081179;28;20127;-61
2022/05/19 02:14:35;;;;;;;9.43;5.50;;;;;;;24.61;51.60;101716.56;5084768;28;20295;-60
2022/05/19 02:17:05;;;;;;;10.32;5.43;;;;;;;24.61;51.19;101713.84;5082610;28;20057;-60
2022/05/19 02:19:38;;;;;;;7.95;4.97;;;;;;;24.61;51.57;101711.13;5082084;28;20150;-61
2022/05/19 02:22:08;;;;;;;7.28;4.60;;;;;;;24.61;51.58;101711.13;5082833;28;20044;-61
2022/05/19 02:24:39;;;;;;;7.65;4.95;;;;;;;24.61;51.64;101708.41;5081204;28;20052;-61
2022/05/19 02:27:31;;;;;;;8.15;5.05;;;;;;;24.59;51.29;101710.44;5080328;28;20056;-59
2022/05/19 02:30:00;;;;;;;8.93;5.40;;;;;;;24.60;51.01;101709.44;5083824;28;20386;-60
2022/05/19 02:32:27;;;;;;;8.38;5.18;;;;;;;24.61;51.41;101707.59;5081814;28;20044;-60
2022/05/19 02:34:53;;;;;;;6.18;4.97;;;;;;;24.60;51.18;101711.28;5082524;28;20042;-60
2022/05/19 02:37:20;;;;;;;7.70;4.72;;;;;;;24.60;51.05;101716.72;5080454;28;20184;-60
2022/05/19 02:39:46;;;;;;;7.78;5.18;;;;;;;24.61;51.33;101723.84;5078497;28;20056;-60
2022/05/19 02:42:13;;;;;;;8.38;5.32;;;;;;;24.60;51.83;101717.59;5075950;28;20154;-60
2022/05/19 02:44:39;;;;;;;12.93;5.60;;;;;;;24.60;51.16;101739.28;5080095;28;20115;-61
2022/05/19 02:47:06;;;;;;;8.05;5.10;;;;;;;24.61;51.57;101843.97;5085459;28;20160;-60
2022/05/19 02:49:33;;;;;;;8.60;5.25;;;;;;;24.61;51.09;101862.09;5085503;28;20469;-60
2022/05/19 02:51:59;;;;;;;8.50;4.88;;;;;;;24.61;51.10;101909.03;5086049;28;20054;-60
2022/05/19 02:54:26;;;;;;;9.40;5.00;;;;;;;24.62;51.00;101908.00;5083422;28;20044;-60
2022/05/19 02:56:53;;;;;;;8.93;5.47;;;;;;;24.60;51.58;101931.75;5080117;28;20048;-60
2022/05/19 02:59:19;;;;;;;9.45;5.78;;;;;;;24.60;51.59;101941.72;5080101;28;20044;-60
2022/05/19 03:01:46;;;;;;;10.85;6.07;;;;;;;24.57;51.19;101936.66;5085290;28;20127;-59
2022/05/19 03:04:12;;;;;;;9.45;5.75;;;;;;;24.55;51.54;101933.25;5083841;28;20585;-59
2022/05/19 03:06:39;;;;;;;12.23;6.05;;;;;;;24.52;51.22;101923.63;5081086;28;20763;-60
2022/05/19 03:09:05;;;;;;;9.32;5.30;;;;;;;24.50;51.59;101912.09;5081097;28;20048;-59
2022/05/19 03:11:33;;;;;;;10.95;5.38;;;;;;;24.48;51.59;101899.72;5080491;28;20059;-59
2022/05/19 03:14:01;;;;;;;8.18;4.90;;;;;;;24.45;51.47;101895.50;5078683;28;20075;-59
2022/05/19 03:16:27;;;;;;;10.02;5.30;;;;;;;24.43;51.71;101892.09;5083754;28;20048;-60
2022/05/19 03:18:54;;;;;;;9.07;4.95;;;;;;;24.43;51.97;101894.81;5086018;28;20063;-60
2022/05/19 03:21:21;;;;;;;6.40;4.10;;;;;;;24.40;52.12;101895.13;5080756;28;20043;-60
2022/05/19 03:23:52;;;;;;;7.18;4.55;;;;;;;24.41;52.10;101899.56;5084444;28;20859;-60
2022/05/19 03:26:18;;;;;;;9.23;4.70;;;;;;;24.38;52.00;101900.75;5083674;28;20047;-60
2022/05/19 03:28:45;;;;;;;8.63;4.50;;;;;;;24.37;52.00;101909.03;5091011;28;20040;-61
2022/05/19 03:31:11;;;;;;;8.93;4.30;;;;;;;24.36;51.75;101912.72;5087205;28;20054;-61
2022/05/19 03:33:38;;;;;;;6.72;3.90;;;;;;;24.35;52.18;101928.13;5082197;28;21268;-59
2022/05/19 03:36:05;;;;;;;7.70;4.13;;;;;;;24.33;52.34;101937.47;5083559;28;21530;-60
2022/05/19 03:38:32;;;;;;;8.63;4.53;;;;;;;24.33;52.23;101943.72;5045391;28;1138473;-60
2022/05/19 03:40:59;;;;;;;7.15;4.13;;;;;;;24.33;51.97;101930.19;5082909;28;20049;-59
2022/05/19 03:43:25;;;;;;;7.53;3.88;;;;;;;24.32;52.33;101927.63;5081807;28;20062;-59
2022/05/19 03:45:53;;;;;;;6.93;3.95;;;;;;;24.31;52.09;101915.09;5085433;28;20134;-59
2022/05/19 03:48:20;;;;;;;6.03;3.45;;;;;;;24.30;52.33;101898.00;5083454;28;20075;-59
2022/05/19 03:50:46;;;;;;;6.72;3.45;;;;;;;24.30;52.01;101865.47;5083490;28;20415;-59
2022/05/19 03:53:13;;;;;;;7.97;4.15;;;;;;;24.31;52.24;101847.34;5087804;28;20050;-61
2022/05/19 03:55:40;;;;;;;6.28;3.80;;;;;;;24.29;52.12;101830.44;5064216;28;20054;-59
2022/05/19 03:58:07;;;;;;;5.30;3.72;;;;;;;24.29;52.17;101831.28;5083090;28;20127;-59
2022/05/19 04:00:33;;;;;;;17.15;5.30;;;;;;;24.29;52.58;101835.88;5086076;28;20039;-59
2022/05/19 04:03:00;;;;;;;22.42;7.28;;;;;;;24.29;52.61;101850.25;5083974;28;20086;-59
2022/05/19 04:05:28;;;;;;;37.95;7.90;;;;;;;24.31;53.03;101869.03;5085522;28;20036;-58
2022/05/19 04:07:55;;;;;;;31.50;7.65;;;;;;;24.30;52.72;101886.31;5088448;28;20039;-60
2022/05/19 04:10:21;;;;;;;30.65;7.95;;;;;;;24.32;52.27;101886.97;5086853;28;20047;-60
2022/05/19 04:12:48;;;;;;;25.95;7.72;;;;;;;24.30;52.87;101891.75;5079270;28;20506;-59
2022/05/19 04:15:14;;;;;;;28.75;9.60;;;;;;;24.31;52.84;101909.69;5084258;28;20040;-61
2022/05/19 04:17:41;;;;;;;31.08;10.25;;;;;;;24.31;52.32;101925.94;5086548;28;20059;-58
2022/05/19 04:20:09;;;;;;;29.85;9.73;;;;;;;24.30;52.84;101941.34;5088703;28;20052;-59
2022/05/19 04:22:36;;;;;;;24.45;9.00;;;;;;;24.30;52.98;101935.94;5090214;28;20123;-60
2022/05/19 04:25:05;;;;;;;31.92;9.68;;;;;;;24.31;52.55;101923.22;5091808;28;20051;-59
2022/05/19 04:27:32;;;;;;;28.33;10.23;;;;;;;24.30;52.76;101959.47;5088350;28;20131;-58
2022/05/19 04:29:58;;;;;;;24.63;10.13;;;;;;;24.30;52.23;101951.34;5088506;28;20062;-59
2022/05/19 04:32:32;;;;;;;32.95;10.85;;;;;;;24.30;52.57;101959.47;5094282;28;20351;-60
2022/05/19 04:34:58;;;;;;;32.72;10.48;;;;;;;24.29;52.04;101957.78;5089721;28;20437;-60
2022/05/19 04:37:25;;;;;;;29.77;11.18;;;;;;;24.29;52.10;101928.81;5091204;28;20051;-61
2022/05/19 04:39:52;;;;;;;27.95;10.45;;;;;;;24.29;52.08;101922.56;5088692;28;20058;-59
2022/05/19 04:42:19;;;;;;;27.70;11.20;;;;;;;24.29;52.34;101925.28;5085095;28;20516;-60
2022/05/19 04:44:45;;;;;;;24.40;10.70;;;;;;;24.29;52.63;101912.56;5089744;28;20043;-61
2022/05/19 04:47:12;;;;;;;21.58;9.82;;;;;;;24.28;52.60;101905.47;5089317;28;20050;-60
2022/05/19 04:49:38;;;;;;;21.85;10.65;;;;;;;24.29;52.12;101901.72;5091363;28;20125;-60
2022/05/19 04:52:10;;;;;;;20.42;10.48;;;;;;;24.28;52.67;101878.38;5087509;28;20067;-61
2022/05/19 04:54:37;;;;;;;21.88;10.52;;;;;;;24.28;51.93;101878.38;5084903;28;20285;-60
2022/05/19 04:57:05;;;;;;;23.38;10.45;;;;;;;24.29;52.17;101876.50;5090762;28;20422;-60
2022/05/19 04:59:32;;;;;;;19.30;9.85;;;;;;;24.27;52.14;101871.22;5089198;28;20044;-61
2022/05/19 05:01:59;;;;;;;21.95;11.30;;;;;;;24.28;52.27;101872.94;5089443;28;20118;-60
2022/05/19 05:04:26;;;;;;;18.55;10.23;;;;;;;24.26;52.45;101921.03;5088096;28;20040;-60
2022/05/19 05:06:54;;;;;;;25.02;12.13;;;;;;;24.27;52.73;101924.59;5091100;28;20132;-60
2022/05/19 05:09:20;;;;;;;21.90;12.07;;;;;;;24.26;52.45;101903.94;5087969;28;20119;-60
2022/05/19 05:11:47;;;;;;;22.80;11.43;;;;;;;24.26;52.73;101896.66;5090843;28;20040;-61
2022/05/19 05:14:14;;;;;;;21.15;11.30;;;;;;;24.27;52.77;101898.34;5084223;28;20068;-60
2022/05/19 05:16:41;;;;;;;19.80;11.18;;;;;;;24.26;52.66;101885.81;5090306;28;20127;-60
2022/05/19 05:19:07;;;;;;;23.90;12.02;;;;;;;24.27;52.73;101889.34;5085984;28;20055;-60
2022/05/19 05:21:34;;;;;;;21.92;11.05;;;;;;;24.26;52.43;101882.25;5089760;28;20486;-61
2022/05/19 05:24:00;;;;;;;26.48;12.10;;;;;;;24.28;52.17;101877.50;5082445;28;20050;-61
2022/05/19 05:26:27;;;;;;;19.08;11.63;;;;;;;24.27;51.93;101865.81;5087131;28;20152;-60
2022/05/19 05:28:53;;;;;;;24.63;11.02;;;;;;;24.28;52.11;101861.25;5080969;28;20049;-61
2022/05/19 05:31:20;;;;;;;22.50;11.10;;;;;;;24.28;52.50;101850.41;5089003;28;20052;-61
2022/05/19 05:33:47;;;;;;;20.98;11.07;;;;;;;24.27;52.28;101852.28;5086018;28;20114;-61
2022/05/19 05:36:13;;;;;;;21.30;11.38;;;;;;;24.28;52.20;101847.69;5088386;28;20327;-60
2022/05/19 05:38:40;;;;;;;23.58;10.98;;;;;;;24.28;52.20;101837.72;5087633;28;20056;-60
2022/05/19 05:41:07;;;;;;;22.92;11.85;;;;;;;24.28;52.39;101817.88;5089909;28;20058;-61
2022/05/19 05:43:35;;;;;;;19.67;10.80;;;;;;;24.29;52.43;101811.47;5088311;28;20040;-60
2022/05/19 05:46:05;;;;;;;22.25;11.10;;;;;;;24.28;51.75;101799.78;5089959;28;20122;-61
2022/05/19 05:48:36;;;;;;;21.50;11.18;;;;;;;24.30;51.98;101791.47;5089113;28;20471;-62
2022/05/19 05:51:07;;;;;;;19.88;11.18;;;;;;;24.29;52.47;101787.09;5088944;28;20044;-60
2022/05/19 05:53:36;;;;;;;17.70;10.55;;;;;;;24.29;51.95;101779.81;5089657;28;20040;-62
2022/05/19 05:56:04;;;;;;;19.98;11.40;;;;;;;24.30;52.04;101783.34;5089421;28;20062;-61
2022/05/19 05:58:31;;;;;;;20.33;11.05;;;;;;;24.29;52.20;101768.13;5086675;28;20673;-60
2022/05/19 06:00:58;;;;;;;17.88;10.75;;;;;;;24.28;51.63;101775.41;5090284;28;20135;-60
2022/05/19 06:03:25;;;;;;;18.00;9.73;;;;;;;24.28;52.09;101775.41;5089646;28;20032;-60
2022/05/19 06:05:51;;;;;;;17.42;10.48;;;;;;;24.29;52.27;101774.38;5090979;28;20040;-60
2022/05/19 06:08:19;;;;;;;19.02;10.95;;;;;;;24.29;51.79;101768.97;5088221;28;20157;-60
2022/05/19 06:10:46;;;;;;;17.50;10.25;;;;;;;24.31;52.23;101768.78;5088620;28;20095;-60
2022/05/19 06:13:15;;;;;;;16.40;9.77;;;;;;;24.32;51.45;101779.47;5069344;28;20042;-61
2022/05/19 06:15:42;;;;;;;20.98;9.43;;;;;;;24.31;51.29;101772.34;5067898;28;20044;-60
2022/05/19 06:18:09;;;;;;;23.52;10.85;;;;;;;24.31;51.96;101775.03;5087022;28;20036;-60
2022/05/19 06:20:36;;;;;;;17.23;9.30;;;;;;;24.32;52.08;101773.19;5089463;28;20076;-60
2022/05/19 06:23:03;;;;;;;18.02;9.43;;;;;;;24.33;51.30;101766.75;5082524;28;20048;-61
2022/05/19 06:25:30;;;;;;;16.00;9.43;;;;;;;24.33;51.31;101759.47;5085255;28;20427;-61
2022/05/19 06:27:58;;;;;;;17.13;9.02;;;;;;;24.33;51.33;101775.72;5086777;28;20052;-60
2022/05/19 06:30:25;;;;;;;16.52;9.55;;;;;;;24.34;52.03;101771.16;5090531;28;20419;-61
2022/05/19 06:32:52;;;;;;;16.52;8.95;;;;;;;24.35;51.92;101767.41;5086141;28;20043;-60
2022/05/19 06:35:22;;;;;;;15.98;8.40;;;;;;;24.35;51.63;101759.28;5089919;28;20047;-62
2022/05/19 06:37:50;;;;;;;15.75;8.93;;;;;;;24.36;51.22;101752.84;5088018;28;20044;-62
2022/05/19 06:40:18;;;;;;;21.10;8.85;;;;;;;24.35;51.32;101749.28;5090519;28;20040;-60
2022/05/19 06:42:45;;;;;;;14.88;9.07;;;;;;;24.36;51.84;101761.84;5089923;28;20044;-60
2022/05/19 06:45:17;;;;;;;16.38;9.20;;;;;;;24.35;51.55;101768.25;5090445;28;20047;-60
2022/05/19 06:47:43;;;;;;;13.43;8.38;;;;;;;24.36;51.68;101771.81;5086937;28;20054;-60
2022/05/19 06:50:12;;;;;;;14.68;9.02;;;;;;;24.35;51.53;101779.09;5091673;28;20067;-60
2022/05/19 06:52:50;;;;;;;13.75;9.13;;;;;;;24.37;51.05;101784.38;5093885;28;20050;-60
2022/05/19 06:55:19;;;;;;;14.02;8.50;;;;;;;24.37;51.31;101778.94;5090348;28;20056;-61
2022/05/19 06:57:46;;;;;;;14.23;8.23;;;;;;;24.38;51.69;101773.38;5089216;28;20047;-60
2022/05/19 07:00:16;;;;;;;11.68;7.55;;;;;;;24.40;51.09;101781.31;5091391;28;20046;-61
2022/05/19 07:02:45;;;;;;;14.65;8.43;;;;;;;24.42;51.46;101786.59;5092279;28;20765;-59
2022/05/19 07:05:12;;;;;;;13.27;8.20;;;;;;;24.43;51.42;101780.13;5094168;28;20076;-60
2022/05/19 07:07:39;;;;;;;13.80;8.43;;;;;;;24.43;50.84;101775.56;5090984;28;20130;-60
2022/05/19 07:10:09;;;;;;;18.10;8.85;;;;;;;24.45;51.18;101775.41;5090738;28;20087;-61
2022/05/19 07:12:37;;;;;;;21.85;8.73;;;;;;;24.46;51.17;101777.09;5092361;28;20036;-61
2022/05/19 07:15:04;;;;;;;20.85;8.40;;;;;;;24.48;51.52;101788.59;5092397;28;20054;-61
2022/05/19 07:17:31;;;;;;;31.75;9.93;;;;;;;24.49;50.85;101776.75;5093568;28;20048;-61
2022/05/19 07:22:43;;;;;;;46.45;13.30;;;;;;;24.51;51.17;101775.53;5093713;28;20375;-61
2022/05/19 07:25:11;;;;;;;50.40;13.98;;;;;;;24.52;51.34;101782.66;5092452;28;20040;-60
2022/05/19 07:27:38;;;;;;;41.15;13.63;;;;;;;24.54;51.32;101779.78;5088592;28;20052;-60
2022/05/19 07:30:06;;;;;;;55.78;15.20;;;;;;;24.53;51.67;101787.06;5088323;28;20508;-61
2022/05/19 07:32:33;;;;;;;43.85;14.05;;;;;;;24.55;51.36;101793.13;5091826;28;20048;-59
2022/05/19 07:34:59;;;;;;;51.47;13.70;;;;;;;24.56;51.54;101792.16;5093383;28;20138;-60
2022/05/19 07:37:26;;;;;;;48.45;14.73;;;;;;;24.56;51.68;101796.69;5092217;28;20067;-59
2022/05/19 07:39:53;;;;;;;39.47;12.70;;;;;;;24.59;51.81;101802.63;5090271;28;20052;-62
2022/05/19 07:42:21;;;;;;;43.15;13.45;;;;;;;24.58;51.36;101803.66;5089673;28;20126;-60
2022/05/19 07:44:47;;;;;;;41.42;12.77;;;;;;;24.59;52.05;101809.91;5089687;28;20130;-61
2022/05/19 07:47:16;;;;;;;33.85;12.38;;;;;;;24.60;51.41;101812.47;5092189;28;20044;-60
2022/05/19 07:49:44;;;;;;;34.53;12.23;;;;;;;24.60;51.82;101809.75;5093229;28;20127;-61
2022/05/19 07:52:10;;;;;;;33.30;12.20;;;;;;;24.61;51.18;101806.00;5089784;28;20048;-60
2022/05/19 07:54:37;;;;;;;32.38;11.18;;;;;;;24.61;51.46;101808.72;5086996;28;20135;-60
2022/05/19 07:57:04;;;;;;;25.92;10.75;;;;;;;24.63;51.71;101806.66;5091208;28;20139;-60
2022/05/19 07:59:31;;;;;;;30.50;12.23;;;;;;;24.63;51.31;101800.41;5089197;28;20590;-61
2022/05/19 08:01:57;;;;;;;34.47;11.98;;;;;;;24.64;51.33;101796.66;5092532;28;20285;-59
2022/05/19 08:04:26;;;;;;;29.20;10.77;;;;;;;24.65;51.68;101797.53;5092238;28;20046;-60
2022/05/19 08:06:53;;;;;;;30.77;10.80;;;;;;;24.65;51.82;101792.97;5092244;28;20086;-59
2022/05/19 08:12:06;;;;;;;36.35;10.35;;;;;;;24.68;51.16;101810.72;5089760;28;20040;-60
2022/05/19 08:17:30;;;;;;;22.13;10.35;;;;;;;24.67;51.68;101804.47;5091237;28;20492;-60
2022/05/19 08:19:56;;;;;;;26.85;9.75;;;;;;;24.68;51.18;101798.00;5090558;28;20052;-60
2022/05/19 08:22:23;;;;;;;24.17;10.40;;;;;;;24.68;51.35;101779.03;5093137;28;20700;-60
2022/05/19 08:24:49;;;;;;;27.50;10.68;;;;;;;24.70;51.65;101776.16;5090331;28;20131;-61
2022/05/19 08:27:18;;;;;;;22.73;10.20;;;;;;;24.69;51.32;101775.31;5090017;28;20606;-61
2022/05/19 08:29:44;;;;;;;24.25;9.82;;;;;;;24.70;51.12;101773.44;5089229;28;20372;-61
2022/05/19 08:32:11;;;;;;;20.92;9.00;;;;;;;24.70;51.60;101765.31;5093370;28;20131;-60
2022/05/19 08:34:38;;;;;;;20.50;9.30;;;;;;;24.71;50.89;101775.13;5091635;28;20084;-61
2022/05/19 08:37:05;;;;;;;20.42;8.80;;;;;;;24.71;51.45;101784.09;5086702;28;20044;-62
2022/05/19 08:39:32;;;;;;;15.63;8.15;;;;;;;24.72;50.81;101802.06;5088476;28;20098;-61
2022/05/19 08:42:04;;;;;;;18.15;9.70;;;;;;;24.72;51.08;101793.94;5091500;28;20047;-61
2022/05/19 08:44:42;;;;;;;27.05;9.85;;;;;;;24.72;51.16;101793.94;5091011;28;20035;-60
2022/05/19 08:47:11;;;;;;;23.33;9.57;;;;;;;24.73;50.89;101811.06;5090016;28;20471;-61
2022/05/19 08:49:46;;;;;;;25.73;9.38;;;;;;;24.73;50.84;101811.91;5089005;28;20047;-61
2022/05/19 08:52:17;;;;;;;20.50;8.52;;;;;;;24.74;50.82;101812.75;5090041;28;20419;-60
2022/05/19 08:54:46;;;;;;;23.23;8.88;;;;;;;24.73;51.04;101814.63;5092513;28;20048;-61
2022/05/19 08:57:20;;;;;;;20.92;8.13;;;;;;;24.73;50.82;101820.03;5089770;28;20050;-60
2022/05/19 09:00:17;;;;;;;17.95;8.20;;;;;;;24.73;50.87;101816.50;5089378;28;20063;-61
2022/05/19 09:02:55;;;;;;;17.73;8.18;;;;;;;24.74;50.52;101818.16;5091825;28;20040;-61
2022/05/19 09:05:50;;;;;;;16.45;8.20;;;;;;;24.73;51.08;101827.34;5091415;28;20180;-60
2022/05/19 09:08:55;;;;;;;18.73;8.00;;;;;;;24.73;50.81;101817.34;5065419;28;20364;-61
2022/05/19 09:11:33;;;;;;;23.92;9.15;;;;;;;24.74;50.98;101805.47;4988830;28;20165;-61
2022/05/19 09:14:22;;;;;;;15.82;8.40;;;;;;;24.75;50.69;101799.00;5071710;28;21127;-60
2022/05/19 09:16:50;;;;;;;13.20;7.43;;;;;;;24.77;51.27;101796.13;5089660;28;20119;-60
2022/05/19 09:19:22;;;;;;;13.25;7.63;;;;;;;24.77;50.57;101788.84;5089427;28;21025;-61
2022/05/19 09:22:15;;;;;;;18.27;7.40;;;;;;;24.79;51.01;101785.94;5089105;28;20486;-60
2022/05/19 09:24:50;;;;;;;15.95;7.80;;;;;;;24.83;51.22;101795.41;5091388;28;20475;-60
2022/05/19 09:27:19;;;;;;;18.35;7.57;;;;;;;24.85;50.83;101799.66;5088752;28;20050;-61
2022/05/19 09:29:52;;;;;;;15.27;7.55;;;;;;;24.89;51.04;101811.00;5078232;28;20052;-61
2022/05/19 09:32:34;;;;;;;16.13;7.07;;;;;;;24.93;51.20;101817.78;5075014;28;20399;-61
2022/05/19 09:35:19;;;;;;;18.10;8.00;;;;;;;24.96;51.00;101811.13;5084861;28;20127;-61
2022/05/19 09:37:49;;;;;;;17.65;7.38;;;;;;;24.98;50.98;101818.06;5089830;28;20071;-61
2022/05/19 09:40:23;;;;;;;10.52;6.13;;;;;;;25.00;51.06;101802.44;5086470;28;20040;-61
2022/05/19 09:43:27;;;;;;;15.13;6.50;;;;;;;25.04;50.56;101797.53;5089958;28;20051;-61
2022/05/19 09:46:14;;;;;;;13.60;6.82;;;;;;;25.06;50.48;101804.47;5090202;28;20047;-60
2022/05/19 09:49:03;;;;;;;13.15;6.28;;;;;;;25.09;50.53;101795.19;5088316;28;20043;-60
2022/05/19 09:51:43;;;;;;;11.13;6.20;;;;;;;25.11;50.48;101788.53;5090283;28;20047;-60
2022/05/19 09:54:12;;;;;;;12.18;5.82;;;;;;;25.14;50.43;101790.06;5089729;28;20046;-61
2022/05/19 09:56:46;;;;;;;12.23;6.10;;;;;;;25.18;50.33;101774.28;5089977;28;20127;-61
2022/05/19 09:59:15;;;;;;;;;;;;;;;25.22;50.79;101762.88;5088488;28;20495;-61
2022/05/19 10:01:46;;;;;;;16.85;5.82;;;;;;;25.26;50.21;101750.63;5088859;28;20018;-62
2022/05/19 10:04:18;;;;;;;10.95;5.93;;;;;;;25.28;50.70;101745.03;5090863;28;20058;-62
2022/05/19 10:06:51;;;;;;;12.38;5.45;;;;;;;25.30;50.30;101743.81;5091518;28;20472;-63
2022/05/19 10:09:23;;;;;;;12.18;5.90;;;;;;;25.32;50.68;101739.06;5088208;28;20086;-62
2022/05/19 10:11:54;;;;;;;12.60;5.43;;;;;;;25.35;50.14;101735.13;5091033;28;20043;-61
2022/05/19 10:14:40;;;;;;;11.23;5.32;;;;;;;25.36;50.50;101734.94;5089133;28;20068;-62
2022/05/19 10:17:38;;;;;;;13.15;5.72;;;;;;;25.38;50.24;101717.66;5091090;28;20083;-62
2022/05/19 10:20:21;;;;;;;10.50;6.00;;;;;;;25.40;50.28;101711.00;5089826;28;20159;-62
2022/05/19 10:23:16;;;;;;;11.00;5.35;;;;;;;25.42;50.39;101703.53;5089034;28;20056;-62
2022/05/19 10:26:15;;;;;;;11.43;5.53;;;;;;;25.44;49.96;101703.34;5088715;28;20092;-62
2022/05/19 10:31:45;;;;;;;11.07;5.68;;;;;;;25.46;50.25;101721.16;5090991;28;20122;-61
2022/05/19 10:34:30;;;;;;;9.70;5.13;;;;;;;25.48;50.17;101723.69;5093830;28;20040;-61
2022/05/19 10:37:11;;;;;;;7.18;4.93;;;;;;;25.47;50.41;101730.97;5094178;28;20051;-61
2022/05/19 10:39:56;;;;;;;9.32;4.90;;;;;;;25.46;50.29;101747.47;5093433;28;20068;-61
2022/05/19 10:42:33;;;;;;;10.82;4.93;;;;;;;25.47;50.02;101760.84;5094173;28;20043;-61
2022/05/19 10:45:17;;;;;;;8.15;5.18;;;;;;;25.45;50.24;101741.19;5091842;28;20060;-61
2022/05/19 10:47:56;;;;;;;15.25;5.80;;;;;;;25.44;50.25;101765.78;5094159;28;20415;-62
2022/05/19 10:50:33;;;;;;;7.80;4.32;;;;;;;25.44;50.33;101773.91;5092544;28;20458;-61
2022/05/19 10:53:09;;;;;;;8.38;4.63;;;;;;;25.44;50.15;101771.22;5094105;28;20521;-61
2022/05/19 10:56:09;;;;;;;8.80;4.72;;;;;;;25.41;50.71;101774.28;5090310;28;20050;-61
2022/05/19 10:58:45;;;;;;;7.70;4.75;;;;;;;25.41;50.33;101777.00;5091373;28;20127;-61
2022/05/19 11:01:26;;;;;;;10.18;4.60;;;;;;;25.40;50.53;101776.16;5093085;28;20134;-60
2022/05/19 11:04:32;;;;;;;9.57;4.85;;;;;;;25.39;50.72;101781.78;5069863;28;20048;-61
2022/05/19 11:07:22;;;;;;;11.10;6.05;;;;;;;25.39;50.60;101796.19;5091094;28;20117;-61
2022/05/19 11:10:09;;;;;;;8.52;4.68;;;;;;;25.38;50.48;101805.34;5093960;28;20101;-61
2022/05/19 11:13:09;;;;;;;7.97;4.85;;;;;;;25.36;50.34;101791.94;5091255;28;20414;-61
2022/05/19 11:15:43;;;;;;;8.57;4.20;;;;;;;25.36;50.77;101791.94;5088276;28;20451;-61
2022/05/19 11:18:23;;;;;;;9.93;4.93;;;;;;;25.35;50.54;101792.13;5090905;28;20075;-60
2022/05/19 11:21:19;;;;;;;6.90;4.47;;;;;;;25.34;50.73;101796.72;5090806;28;20048;-61
2022/05/19 11:24:01;;;;;;;8.13;4.20;;;;;;;25.35;50.39;101808.41;5083537;28;20040;-61
2022/05/19 11:26:31;;;;;;;10.40;4.80;;;;;;;25.33;50.32;101830.31;5092037;28;20554;-61
2022/05/19 11:29:26;;;;;;;6.00;4.30;;;;;;;25.34;50.54;101861.84;5093364;28;20150;-61
2022/05/19 11:32:15;;;;;;;6.72;4.10;;;;;;;25.34;50.81;101924.28;5092055;28;20040;-62
2022/05/19 11:34:49;;;;;;;7.15;4.32;;;;;;;25.34;50.84;101989.41;5090567;28;20044;-62
2022/05/19 11:37:36;;;;;;;8.10;4.95;;;;;;;25.33;50.28;101987.72;5090593;28;20325;-60
2022/05/19 11:40:26;;;;;;;6.60;3.63;;;;;;;25.33;50.60;101973.31;5087327;28;20056;-61
2022/05/19 11:43:09;;;;;;;8.00;4.25;;;;;;;25.33;50.62;101944.31;5071454;28;20419;-62
2022/05/19 11:46:08;;;;;;;6.97;3.92;;;;;;;25.32;50.75;101942.59;5088054;28;20755;-61
2022/05/19 11:57:23;;;;;;;6.10;3.80;;;;;;;25.29;50.33;102013.53;5090308;28;20123;-62
2022/05/19 11:59:55;;;;;;;7.22;3.88;;;;;;;25.29;50.41;102027.09;5069580;28;20341;-61
2022/05/19 12:02:28;;;;;;;9.20;4.50;;;;;;;25.27;50.62;102003.84;5089875;28;20039;-61